Time;durP1;ratioP1;P1;durP2;ratioP2;P2;SDS_P1;SDS_P2;PMS_P1;PMS_P2;Temp;Humidity;BMP_temperature;BMP_pressure;BME280_temperature;BME280_humidity;BME280_pressure;Samples;Min_cycle;Max_cycle;Signal;HPM_P1;HPM_P2
2023/12/01 00:01:08;;;;;;;33.75;20.17;;;;;;;-2.38;100.00;99832.34;7397898;19;20090;-67
2023/12/01 00:03:39;;;;;;;35.40;19.20;;;;;;;-2.40;100.00;99828.91;7398603;19;20510;-70
2023/12/01 00:06:09;;;;;;;34.10;20.33;;;;;;;-2.41;100.00;99832.31;7400540;19;20031;-70
2023/12/01 00:08:37;;;;;;;40.67;23.45;;;;;;;-2.46;100.00;99829.66;7399668;19;20073;-70
2023/12/01 00:11:07;;;;;;;40.08;22.95;;;;;;;-2.48;100.00;99833.94;7399701;19;20078;-69
2023/12/01 00:13:35;;;;;;;34.47;20.67;;;;;;;-2.50;100.00;99830.47;7398629;19;20018;-68
2023/12/01 00:16:04;;;;;;;38.42;22.20;;;;;;;-2.54;100.00;99831.25;7399584;19;20083;-69
2023/12/01 00:18:32;;;;;;;38.95;20.95;;;;;;;-2.57;100.00;99833.75;7399702;19;20018;-68
2023/12/01 00:21:03;;;;;;;37.67;19.95;;;;;;;-2.58;100.00;99832.03;7395783;19;20087;-68
2023/12/01 00:23:32;;;;;;;36.42;21.58;;;;;;;-2.60;100.00;99831.16;7398639;19;20019;-68
2023/12/01 00:26:01;;;;;;;36.55;20.30;;;;;;;-2.60;100.00;99832.84;7398972;19;20477;-68
2023/12/01 00:28:29;;;;;;;35.55;20.35;;;;;;;-2.63;100.00;99836.22;7398994;19;20003;-68
2023/12/01 00:30:58;;;;;;;42.45;21.50;;;;;;;-2.63;100.00;99836.22;7399005;19;20074;-68
2023/12/01 00:33:26;;;;;;;38.17;21.40;;;;;;;-2.63;100.00;99836.22;7398179;19;20015;-68
2023/12/01 00:35:54;;;;;;;36.00;20.38;;;;;;;-2.62;100.00;99835.38;7399237;19;20070;-68
2023/12/01 00:38:25;;;;;;;36.97;23.05;;;;;;;-2.62;100.00;99836.28;7398940;19;20074;-68
2023/12/01 00:40:54;;;;;;;34.50;20.80;;;;;;;-2.63;100.00;99829.41;7399526;19;20066;-69
2023/12/01 00:43:22;;;;;;;35.33;20.98;;;;;;;-2.64;100.00;99840.50;7398031;19;20010;-68
2023/12/01 00:45:51;;;;;;;35.97;21.42;;;;;;;-2.66;100.00;99842.16;7398911;19;20082;-68
2023/12/01 00:48:19;;;;;;;35.80;21.50;;;;;;;-2.69;100.00;99839.56;7398679;19;20074;-68
2023/12/01 00:50:48;;;;;;;36.75;20.73;;;;;;;-2.70;100.00;99839.53;7398587;19;20017;-68
2023/12/01 00:53:16;;;;;;;36.90;21.20;;;;;;;-2.69;100.00;99839.56;7397252;19;20493;-68
2023/12/01 00:55:47;;;;;;;35.45;19.65;;;;;;;-2.70;100.00;99842.13;7398162;19;20014;-68
2023/12/01 00:58:16;;;;;;;34.45;21.33;;;;;;;-2.70;100.00;99850.66;7398151;19;20369;-68
2023/12/01 01:00:44;;;;;;;36.15;21.15;;;;;;;-2.71;100.00;99850.66;7398331;19;20077;-68
2023/12/01 01:03:12;;;;;;;40.65;20.98;;;;;;;-2.71;100.00;99851.50;7397672;19;20427;-69
2023/12/01 01:05:41;;;;;;;36.75;20.77;;;;;;;-2.70;100.00;99862.66;7398188;19;20035;-69
2023/12/01 01:08:09;;;;;;;37.17;19.90;;;;;;;-2.70;100.00;99863.50;7398057;19;20022;-68
2023/12/01 01:10:38;;;;;;;33.42;20.33;;;;;;;-2.70;100.00;99868.66;7398038;19;20018;-68
2023/12/01 01:13:09;;;;;;;40.00;20.13;;;;;;;-2.67;100.00;99871.25;7396932;19;20081;-69
2023/12/01 01:15:37;;;;;;;35.33;19.85;;;;;;;-2.64;100.00;99870.47;7398204;19;20066;-69
2023/12/01 01:18:06;;;;;;;31.15;19.55;;;;;;;-2.63;100.00;99870.50;7397341;19;20023;-68
2023/12/01 01:20:34;;;;;;;36.35;20.05;;;;;;;-2.60;100.00;99874.81;7396132;19;20029;-67
2023/12/01 01:23:03;;;;;;;32.58;19.92;;;;;;;-2.58;100.00;99878.25;7395610;19;20031;-68
2023/12/01 01:25:32;;;;;;;35.00;19.05;;;;;;;-2.57;100.00;99882.56;7397222;19;20029;-67
2023/12/01 01:28:00;;;;;;;33.55;19.00;;;;;;;-2.57;100.00;99872.28;7397016;19;20516;-67
2023/12/01 01:30:31;;;;;;;30.00;18.92;;;;;;;-2.57;100.00;99874.84;7397270;19;20040;-67
2023/12/01 01:33:00;;;;;;;36.72;18.98;;;;;;;-2.59;100.00;99875.66;7396840;19;20094;-68
2023/12/01 01:35:28;;;;;;;30.20;18.38;;;;;;;-2.60;100.00;99869.69;7395003;19;20531;-67
2023/12/01 01:37:57;;;;;;;28.95;17.60;;;;;;;-2.61;100.00;99873.06;7397135;19;20090;-67
2023/12/01 01:40:25;;;;;;;29.75;18.38;;;;;;;-2.60;100.00;99872.25;7397073;19;20010;-67
2023/12/01 01:42:53;;;;;;;30.10;18.48;;;;;;;-2.62;100.00;99869.66;7396224;19;20086;-68
2023/12/01 01:45:22;;;;;;;29.58;19.08;;;;;;;-2.62;100.00;99869.66;7396953;19;20023;-67
2023/12/01 01:47:53;;;;;;;29.23;18.95;;;;;;;-2.60;100.00;99867.13;7396782;19;20081;-67
2023/12/01 01:50:22;;;;;;;31.30;18.35;;;;;;;-2.59;100.00;99866.28;7396371;19;20357;-68
2023/12/01 01:52:52;;;;;;;33.50;18.42;;;;;;;-2.59;100.00;99862.81;7396211;19;20014;-68
2023/12/01 01:55:21;;;;;;;28.90;17.65;;;;;;;-2.62;100.00;99861.06;7394658;19;20480;-68
2023/12/01 01:57:51;;;;;;;30.20;18.40;;;;;;;-2.63;100.00;99859.34;7396404;19;20010;-68
2023/12/01 02:00:20;;;;;;;29.70;17.70;;;;;;;-2.64;100.00;99858.47;7396108;19;20070;-68
2023/12/01 02:02:49;;;;;;;30.40;17.63;;;;;;;-2.64;100.00;99853.34;7395918;19;20376;-69
2023/12/01 02:05:20;;;;;;;28.67;18.15;;;;;;;-2.66;100.00;99849.88;7396345;19;20018;-68
2023/12/01 02:07:49;;;;;;;30.63;17.17;;;;;;;-2.67;100.00;99853.28;7396649;19;20025;-68
2023/12/01 02:10:18;;;;;;;29.02;17.05;;;;;;;-2.66;100.00;99864.44;7396108;19;20021;-68
2023/12/01 02:12:47;;;;;;;31.95;18.40;;;;;;;-2.66;100.00;99864.44;7396472;19;20018;-69
2023/12/01 02:15:16;;;;;;;25.98;16.52;;;;;;;-2.64;100.00;99868.75;7394529;19;20014;-69
2023/12/01 02:17:44;;;;;;;35.50;18.98;;;;;;;-2.62;100.00;99869.66;7395848;19;20414;-68
2023/12/01 02:20:20;;;;;;;29.13;16.63;;;;;;;-2.61;100.00;99873.06;7394555;19;20088;-68
2023/12/01 02:22:57;;;;;;;25.27;16.20;;;;;;;-2.63;100.00;99865.34;7395195;19;20057;-68
2023/12/01 02:25:25;;;;;;;27.77;16.90;;;;;;;-2.63;100.00;99864.47;7395860;19;20028;-68
2023/12/01 02:27:54;;;;;;;28.65;17.85;;;;;;;-2.65;100.00;99864.44;7395603;19;20018;-68
2023/12/01 02:30:22;;;;;;;31.17;18.42;;;;;;;-2.65;100.00;99861.88;7395579;19;20074;-68
2023/12/01 02:32:50;;;;;;;33.95;18.50;;;;;;;-2.66;100.00;99867.84;7394676;19;20090;-69
2023/12/01 02:35:19;;;;;;;30.98;17.67;;;;;;;-2.68;100.00;99869.53;7393907;19;20421;-68
2023/12/01 02:37:47;;;;;;;25.85;16.52;;;;;;;-2.68;100.00;99869.53;7395422;19;20031;-68
2023/12/01 02:40:18;;;;;;;29.85;16.95;;;;;;;-2.68;100.00;99864.41;7394903;19;20014;-68
2023/12/01 02:42:48;;;;;;;29.02;16.98;;;;;;;-2.69;100.00;99870.38;7394535;19;20425;-69
2023/12/01 02:45:17;;;;;;;28.08;17.08;;;;;;;-2.69;100.00;99872.06;7401766;19;20029;-68
2023/12/01 02:47:47;;;;;;;30.65;17.80;;;;;;;-2.70;100.00;99873.78;7402449;19;20011;-68
2023/12/01 02:50:16;;;;;;;27.92;17.35;;;;;;;-2.70;100.00;99876.34;7402690;19;20007;-68
2023/12/01 02:52:44;;;;;;;28.73;16.92;;;;;;;-2.71;100.00;99877.19;7401808;19;20501;-69
2023/12/01 02:55:14;;;;;;;27.20;16.48;;;;;;;-2.72;100.00;99879.72;7400514;19;20078;-68
2023/12/01 02:57:45;;;;;;;27.77;17.25;;;;;;;-2.71;100.00;99884.03;7402457;19;20010;-68
2023/12/01 03:00:14;;;;;;;31.55;18.67;;;;;;;-2.72;100.00;99883.16;7402713;19;20027;-68
2023/12/01 03:02:43;;;;;;;25.45;16.00;;;;;;;-2.70;100.00;99884.03;7401919;19;20018;-69
2023/12/01 03:05:12;;;;;;;25.50;15.60;;;;;;;-2.71;100.00;99878.88;7398967;19;20450;-68
2023/12/01 03:07:42;;;;;;;26.02;16.67;;;;;;;-2.69;100.00;99875.50;7402168;19;20011;-68
2023/12/01 03:10:11;;;;;;;25.95;15.85;;;;;;;-2.67;100.00;99878.09;7401972;19;20023;-67
2023/12/01 03:12:40;;;;;;;25.30;16.48;;;;;;;-2.68;100.00;99881.50;7401634;19;20058;-67
2023/12/01 03:15:14;;;;;;;28.73;16.67;;;;;;;-2.69;100.00;99878.09;7399891;19;20238;-66
2023/12/01 03:17:43;;;;;;;26.58;16.25;;;;;;;-2.69;100.00;99887.47;7401495;19;20069;-67
2023/12/01 03:20:12;;;;;;;26.25;16.23;;;;;;;-2.72;100.00;99884.84;7402026;19;20018;-67
2023/12/01 03:22:41;;;;;;;26.52;17.17;;;;;;;-2.73;100.00;99885.69;7401799;19;20018;-68
2023/12/01 03:25:11;;;;;;;28.85;17.35;;;;;;;-2.75;100.00;99889.94;7401650;19;20078;-68
2023/12/01 03:27:42;;;;;;;28.52;15.80;;;;;;;-2.76;100.00;99893.34;7401099;19;20419;-68
2023/12/01 03:30:18;;;;;;;29.30;16.45;;;;;;;-2.77;100.00;99897.59;7401829;19;20356;-68
2023/12/01 03:32:48;;;;;;;26.45;16.70;;;;;;;-2.75;100.00;99900.22;7401282;19;20071;-68
2023/12/01 03:35:20;;;;;;;23.67;15.73;;;;;;;-2.75;100.00;99898.50;7399294;19;20074;-68
2023/12/01 03:37:49;;;;;;;30.33;17.10;;;;;;;-2.73;100.00;99898.53;7401439;19;20010;-67
2023/12/01 03:40:18;;;;;;;25.67;15.60;;;;;;;-2.72;100.00;99895.13;7400871;19;20089;-68
2023/12/01 03:42:47;;;;;;;25.92;15.00;;;;;;;-2.73;100.00;99895.97;7400505;19;20094;-68
2023/12/01 03:45:19;;;;;;;23.77;14.43;;;;;;;-2.74;100.00;99899.34;7400979;19;20426;-68
2023/12/01 03:47:48;;;;;;;25.42;15.25;;;;;;;-2.74;100.00;99899.34;7401281;19;20018;-68
2023/12/01 03:50:18;;;;;;;27.02;15.70;;;;;;;-2.73;100.00;99896.84;7400495;19;20047;-67
2023/12/01 03:52:47;;;;;;;26.88;15.57;;;;;;;-2.72;100.00;99900.25;7399916;19;20022;-67
2023/12/01 03:55:16;;;;;;;24.48;15.00;;;;;;;-2.71;100.00;99896.88;7396617;19;20023;-68
2023/12/01 03:57:46;;;;;;;25.90;15.38;;;;;;;-2.72;100.00;99895.97;7399732;19;20070;-67
2023/12/01 04:00:21;;;;;;;25.27;15.15;;;;;;;-2.75;100.00;99898.50;7400323;19;20423;-68
2023/12/01 04:02:51;;;;;;;24.25;14.82;;;;;;;-2.78;100.00;99895.88;7399343;19;20098;-67
2023/12/01 04:05:22;;;;;;;25.55;15.27;;;;;;;-2.78;100.00;99896.75;7400160;19;20056;-68
2023/12/01 04:07:52;;;;;;;24.58;15.55;;;;;;;-2.79;100.00;99894.16;7400519;19;20006;-68
2023/12/01 04:10:20;;;;;;;24.27;14.73;;;;;;;-2.82;100.00;99904.34;7399676;19;20030;-67
2023/12/01 04:12:49;;;;;;;28.08;15.20;;;;;;;-2.86;100.00;99911.13;7397120;19;20014;-67
2023/12/01 04:15:24;;;;;;;25.25;15.25;;;;;;;-2.90;100.00;99906.78;7397871;19;20102;-67
2023/12/01 04:17:53;;;;;;;24.92;15.07;;;;;;;-2.93;100.00;99909.28;7399477;19;20013;-67
2023/12/01 04:20:27;;;;;;;25.58;16.23;;;;;;;-2.96;100.00;99904.97;7398800;19;20090;-67
2023/12/01 04:22:53;;;;;;;;;;;;;;;-2.97;100.00;99902.34;7399704;19;20493;-68
2023/12/01 04:25:23;;;;;;;22.25;14.38;;;;;;;-2.98;100.00;99906.63;7399573;19;20262;-68
2023/12/01 04:27:52;;;;;;;26.52;16.33;;;;;;;-3.00;100.00;99905.72;7399065;19;20078;-68
2023/12/01 04:30:24;;;;;;;25.30;15.38;;;;;;;-3.00;100.00;99910.00;7398983;19;20423;-68
2023/12/01 04:32:55;;;;;;;27.02;16.13;;;;;;;-3.02;100.00;99906.53;7399263;19;20016;-68
2023/12/01 04:35:24;;;;;;;26.88;16.58;;;;;;;-3.03;100.00;99905.69;7398193;19;20011;-68
2023/12/01 04:37:52;;;;;;;25.63;16.27;;;;;;;-3.05;100.00;99898.78;7398662;19;20014;-67
2023/12/01 04:40:21;;;;;;;29.27;18.02;;;;;;;-3.03;100.00;99899.66;7398840;19;20031;-68
2023/12/01 04:42:50;;;;;;;29.70;17.70;;;;;;;-3.05;100.00;99896.22;7398064;19;20423;-68
2023/12/01 04:45:24;;;;;;;28.85;16.92;;;;;;;-3.04;100.00;99905.66;7398798;19;20081;-68
2023/12/01 04:47:54;;;;;;;26.52;15.55;;;;;;;-3.04;100.00;99908.22;7400005;19;20077;-69
2023/12/01 04:50:24;;;;;;;23.63;14.82;;;;;;;-3.08;100.00;99901.28;7398417;19;20087;-67
2023/12/01 04:52:54;;;;;;;23.42;15.15;;;;;;;-3.11;100.00;99899.50;7398453;19;20022;-67
2023/12/01 04:55:23;;;;;;;23.73;15.35;;;;;;;-3.12;100.00;99908.06;7397176;19;20006;-68
2023/12/01 04:57:52;;;;;;;26.75;16.00;;;;;;;-3.14;100.00;99913.16;7398169;19;20477;-69
2023/12/01 05:00:25;;;;;;;26.88;17.13;;;;;;;-3.12;100.00;99905.50;7398404;19;20087;-67
2023/12/01 05:02:55;;;;;;;25.52;16.13;;;;;;;-3.14;100.00;99909.72;7398228;19;20024;-68
2023/12/01 05:05:25;;;;;;;27.02;16.20;;;;;;;-3.14;100.00;99907.16;7398765;19;20023;-67
2023/12/01 05:07:57;;;;;;;27.88;16.55;;;;;;;-3.17;100.00;99910.53;7397263;19;20014;-67
2023/12/01 05:10:27;;;;;;;26.50;15.98;;;;;;;-3.20;100.00;99912.16;7398681;19;20014;-67
2023/12/01 05:12:57;;;;;;;26.75;16.67;;;;;;;-3.22;100.00;99922.41;7397622;19;20018;-67
2023/12/01 05:15:30;;;;;;;23.95;15.65;;;;;;;-3.23;100.00;99922.38;7396777;19;20010;-68
2023/12/01 05:18:02;;;;;;;25.65;15.68;;;;;;;-3.26;100.00;99928.31;7397558;19;20014;-68
2023/12/01 05:20:32;;;;;;;27.42;16.33;;;;;;;-3.28;100.00;99927.41;7397689;19;20018;-67
2023/12/01 05:23:02;;;;;;;33.25;17.17;;;;;;;-3.31;100.00;99924.75;7397559;19;20377;-68
2023/12/01 05:25:32;;;;;;;27.23;16.30;;;;;;;-3.29;100.00;99928.22;7397624;19;20031;-67
2023/12/01 05:28:03;;;;;;;24.05;15.10;;;;;;;-3.30;100.00;99927.38;7395955;19;20077;-67
2023/12/01 05:30:36;;;;;;;27.30;16.58;;;;;;;-3.30;100.00;99929.06;7397516;19;20014;-67
2023/12/01 05:33:12;;;;;;;25.27;16.17;;;;;;;-3.28;100.00;99942.78;7396289;19;20020;-68
2023/12/01 05:35:42;;;;;;;65.10;32.92;;;;;;;-3.28;100.00;99937.66;7395920;19;20010;-68
2023/12/01 05:38:11;;;;;;;38.45;20.33;;;;;;;-3.26;100.00;99938.56;7396959;19;20018;-68
2023/12/01 05:40:40;;;;;;;26.25;15.43;;;;;;;-3.26;100.00;99938.56;7396254;19;20070;-68
2023/12/01 05:43:16;;;;;;;28.40;16.00;;;;;;;-3.25;100.00;99947.97;7396201;19;20031;-68
2023/12/01 05:45:47;;;;;;;27.48;16.55;;;;;;;-3.29;100.00;99947.03;7396490;19;20014;-68
2023/12/01 05:48:16;;;;;;;26.88;16.02;;;;;;;-3.32;100.00;99949.56;7397204;19;20019;-68
2023/12/01 05:50:45;;;;;;;26.05;15.20;;;;;;;-3.37;100.00;99945.16;7396432;19;20015;-67
2023/12/01 05:53:13;;;;;;;31.73;17.70;;;;;;;-3.41;100.00;99949.34;7395300;19;20019;-68
2023/12/01 05:55:42;;;;;;;27.88;16.08;;;;;;;-3.44;100.00;99949.28;7395126;19;20182;-68
2023/12/01 05:58:12;;;;;;;26.73;16.20;;;;;;;-3.48;100.00;99953.47;7395939;19;20018;-67
2023/12/01 06:00:42;;;;;;;24.92;15.50;;;;;;;-3.54;100.00;99955.88;7395130;19;20007;-67
2023/12/01 06:03:14;;;;;;;29.23;16.23;;;;;;;-3.59;100.00;99962.59;7394726;19;20027;-67
2023/12/01 06:05:43;;;;;;;28.67;16.85;;;;;;;-3.61;100.00;99954.03;7395829;19;20070;-67
2023/12/01 06:08:11;;;;;;;25.60;16.38;;;;;;;-3.60;100.00;99959.19;7396255;19;20043;-67
2023/12/01 06:10:40;;;;;;;29.15;17.08;;;;;;;-3.52;100.00;99961.06;7393436;19;20480;-67
2023/12/01 06:13:09;;;;;;;25.67;15.10;;;;;;;-3.48;100.00;99953.47;7394274;19;20060;-67
2023/12/01 06:15:37;;;;;;;26.58;15.73;;;;;;;-3.46;100.00;99972.34;7393923;19;20017;-68
2023/12/01 06:18:05;;;;;;;24.95;16.42;;;;;;;-3.46;100.00;99972.34;7392186;19;20007;-69
2023/12/01 06:20:37;;;;;;;27.13;15.98;;;;;;;-3.45;100.00;99971.50;7392913;19;20018;-67
2023/12/01 06:23:08;;;;;;;27.98;15.95;;;;;;;-3.48;100.00;99973.97;7393497;19;20090;-68
2023/12/01 06:25:41;;;;;;;25.58;15.63;;;;;;;-3.50;100.00;99975.66;7393358;19;20010;-68
2023/12/01 06:28:10;;;;;;;27.77;15.93;;;;;;;-3.47;100.00;99980.00;7393677;19;20033;-68
2023/12/01 06:30:39;;;;;;;23.20;14.48;;;;;;;-3.46;100.00;99982.59;7394937;19;20007;-67
2023/12/01 06:33:08;;;;;;;24.40;14.23;;;;;;;-3.45;100.00;99978.31;7394301;19;20028;-66
2023/12/01 06:35:40;;;;;;;25.88;14.45;;;;;;;-3.44;100.00;99980.06;7393564;19;20361;-67
2023/12/01 06:38:08;;;;;;;22.33;14.32;;;;;;;-3.45;100.00;99979.19;7394846;19;20014;-66
2023/12/01 06:40:37;;;;;;;22.77;14.27;;;;;;;-3.48;100.00;99981.69;7395289;19;20132;-66
2023/12/01 06:43:09;;;;;;;26.30;14.45;;;;;;;-3.51;100.00;99983.31;7393579;19;20481;-67
2023/12/01 06:45:39;;;;;;;20.25;13.10;;;;;;;-3.51;100.00;99989.31;7393981;19;20511;-67
2023/12/01 06:48:08;;;;;;;22.15;13.43;;;;;;;-3.50;100.00;100000.44;7395264;19;20018;-67
2023/12/01 06:50:39;;;;;;;22.80;13.57;;;;;;;-3.52;100.00;99992.69;7394966;19;20019;-67
2023/12/01 06:53:08;;;;;;;23.25;13.95;;;;;;;-3.53;100.00;100003.78;7395566;19;20070;-68
2023/12/01 06:55:37;;;;;;;23.02;14.98;;;;;;;-3.53;100.00;100006.34;7393963;19;20347;-67
2023/12/01 06:58:09;;;;;;;23.95;14.70;;;;;;;-3.52;100.00;100002.97;7393823;19;20007;-67
2023/12/01 07:00:37;;;;;;;24.95;13.98;;;;;;;-3.54;100.00;100006.31;7394074;19;20010;-67
2023/12/01 07:03:07;;;;;;;19.60;12.95;;;;;;;-3.57;100.00;100019.09;7393858;19;20010;-67
2023/12/01 07:05:40;;;;;;;24.90;13.20;;;;;;;-3.62;100.00;100009.56;7395615;19;20428;-68
2023/12/01 07:08:14;;;;;;;22.27;13.25;;;;;;;-3.64;100.00;100020.63;7394307;19;20011;-66
2023/12/01 07:10:42;;;;;;;25.65;14.18;;;;;;;-3.62;100.00;100024.09;7393004;19;20015;-68
2023/12/01 07:13:11;;;;;;;18.98;11.95;;;;;;;-3.64;100.00;100031.75;7393771;19;20031;-67
2023/12/01 07:15:40;;;;;;;18.70;11.73;;;;;;;-3.67;100.00;100028.25;7393732;19;20010;-67
2023/12/01 07:18:09;;;;;;;19.17;11.50;;;;;;;-3.69;100.00;100027.31;7394023;19;20014;-67
2023/12/01 07:20:40;;;;;;;21.48;12.23;;;;;;;-3.65;100.00;100041.94;7393622;19;20015;-66
2023/12/01 07:23:08;;;;;;;21.15;12.68;;;;;;;-3.64;100.00;100043.69;7393347;19;20035;-67
2023/12/01 07:25:37;;;;;;;24.33;13.45;;;;;;;-3.63;100.00;100042.88;7391825;19;20022;-67
2023/12/01 07:28:08;;;;;;;26.15;14.45;;;;;;;-3.62;100.00;100052.28;7392963;19;20368;-66
2023/12/01 07:30:38;;;;;;;27.10;14.60;;;;;;;-3.63;100.00;100048.00;7396995;19;20348;-67
2023/12/01 07:33:07;;;;;;;21.25;13.73;;;;;;;-3.62;100.00;100042.03;7400022;19;20011;-67
2023/12/01 07:35:36;;;;;;;22.35;12.98;;;;;;;-3.63;100.00;100045.44;7400403;19;20074;-66
2023/12/01 07:38:07;;;;;;;19.02;11.15;;;;;;;-3.63;100.00;100053.13;7400961;19;20024;-66
2023/12/01 07:40:36;;;;;;;23.50;11.18;;;;;;;-3.64;99.07;100054.84;7400031;19;20078;-67
2023/12/01 07:43:05;;;;;;;18.92;11.93;;;;;;;-3.68;96.75;100054.72;7399255;19;20018;-66
2023/12/01 07:45:34;;;;;;;19.88;11.63;;;;;;;-3.69;97.41;100048.72;7399578;19;20017;-67
2023/12/01 07:48:03;;;;;;;19.35;11.18;;;;;;;-3.67;100.00;100057.31;7399420;19;20010;-66
2023/12/01 07:50:31;;;;;;;18.25;12.13;;;;;;;-3.70;99.54;100056.34;7399405;19;20017;-66
2023/12/01 07:53:00;;;;;;;23.05;11.65;;;;;;;-3.62;99.90;100067.69;7397913;19;20074;-67
2023/12/01 07:55:31;;;;;;;19.77;11.63;;;;;;;-3.60;98.05;100066.03;7398957;19;20022;-68
2023/12/01 07:58:00;;;;;;;22.70;13.20;;;;;;;-3.60;99.59;100060.91;7397788;19;20010;-68
2023/12/01 08:00:28;;;;;;;19.63;10.82;;;;;;;-3.56;98.25;100062.72;7399871;19;20023;-68
2023/12/01 08:02:57;;;;;;;19.48;11.35;;;;;;;-3.59;98.05;100072.88;7399387;19;20031;-67
2023/12/01 08:05:26;;;;;;;16.35;10.70;;;;;;;-3.63;95.18;100073.63;7397955;19;20019;-67
2023/12/01 08:07:56;;;;;;;17.80;11.32;;;;;;;-3.58;97.06;100084.88;7398940;19;20017;-67
2023/12/01 08:10:25;;;;;;;17.38;11.40;;;;;;;-3.57;96.15;100089.19;7399292;19;20015;-68
2023/12/01 08:12:56;;;;;;;18.63;12.07;;;;;;;-3.62;100.00;100081.34;7398224;19;20549;-68
2023/12/01 08:15:25;;;;;;;18.65;11.35;;;;;;;-3.51;100.00;100097.03;7396093;19;20015;-68
2023/12/01 08:17:54;;;;;;;20.63;12.40;;;;;;;-3.49;100.00;100095.38;7397733;19;20018;-68
2023/12/01 08:20:23;;;;;;;21.35;12.48;;;;;;;-3.46;100.00;100094.59;7398641;19;20023;-67
2023/12/01 08:22:51;;;;;;;22.63;13.35;;;;;;;-3.44;100.00;100093.78;7396674;19;20018;-68
2023/12/01 08:25:22;;;;;;;21.63;12.05;;;;;;;-3.41;100.00;100098.13;7399119;19;20031;-67
2023/12/01 08:27:51;;;;;;;18.33;11.10;;;;;;;-3.38;100.00;100103.31;7399078;19;20388;-68
2023/12/01 08:30:23;;;;;;;20.48;12.15;;;;;;;-3.36;100.00;100104.22;7398524;19;20010;-68
2023/12/01 08:32:51;;;;;;;17.83;11.32;;;;;;;-3.31;100.00;100106.88;7398331;19;20028;-68
2023/12/01 08:35:21;;;;;;;22.67;14.27;;;;;;;-3.27;100.00;100107.00;7398453;19;20006;-67
2023/12/01 08:37:51;;;;;;;21.08;12.40;;;;;;;-3.21;100.00;100100.28;7396331;19;20078;-67
2023/12/01 08:40:19;;;;;;;21.85;11.57;;;;;;;-3.17;100.00;100110.69;7398618;19;20011;-67
2023/12/01 08:42:47;;;;;;;21.75;12.90;;;;;;;-3.15;100.00;100106.44;7397106;19;20022;-69
2023/12/01 08:45:16;;;;;;;20.35;12.40;;;;;;;-3.11;100.00;100110.81;7397751;19;20070;-67
2023/12/01 08:47:47;;;;;;;20.25;11.13;;;;;;;-3.06;100.00;100121.19;7397758;19;20022;-66
2023/12/01 08:50:17;;;;;;;18.02;11.98;;;;;;;-3.01;100.00;100129.00;7397789;19;20027;-67
2023/12/01 08:52:47;;;;;;;18.67;11.50;;;;;;;-2.97;100.00;100130.78;7398754;19;20094;-67
2023/12/01 08:55:15;;;;;;;16.58;11.10;;;;;;;-2.93;100.00;100134.31;7398216;19;20033;-66
2023/12/01 08:57:43;;;;;;;18.27;12.07;;;;;;;-2.90;100.00;100139.53;7395870;19;20019;-66
2023/12/01 09:00:18;;;;;;;17.83;12.45;;;;;;;-2.87;100.00;100137.91;7398272;19;20397;-66
2023/12/01 09:02:49;;;;;;;;;;;;;;;-2.82;100.00;100143.13;7397191;19;20470;-65
2023/12/01 09:05:17;;;;;;;21.42;11.00;;;;;;;-2.77;100.00;100138.97;7398135;19;19922;-67
2023/12/01 09:07:48;;;;;;;19.48;12.05;;;;;;;-2.74;100.00;100140.72;7397514;19;20031;-67
2023/12/01 09:10:16;;;;;;;17.15;11.32;;;;;;;-2.69;100.00;100144.25;7397625;19;20085;-66
2023/12/01 09:12:45;;;;;;;20.02;11.52;;;;;;;-2.67;100.00;100147.75;7395386;19;20031;-67
2023/12/01 09:15:14;;;;;;;17.88;11.50;;;;;;;-2.68;100.00;100140.88;7397717;19;20011;-66
2023/12/01 09:17:42;;;;;;;25.58;15.57;;;;;;;-2.63;100.00;100152.09;7395087;19;20010;-64
2023/12/01 09:20:14;;;;;;;20.13;11.95;;;;;;;-2.59;100.00;100153.94;7397264;19;20019;-67
2023/12/01 09:22:43;;;;;;;19.88;11.82;;;;;;;-2.53;100.00;100150.63;7395138;19;20431;-65
2023/12/01 09:25:11;;;;;;;17.60;11.38;;;;;;;-2.49;100.00;100144.69;7397176;19;20090;-64
2023/12/01 09:27:41;;;;;;;16.17;11.82;;;;;;;-2.47;100.00;100143.91;7395988;19;20010;-65
2023/12/01 09:30:15;;;;;;;18.38;11.10;;;;;;;-2.41;100.00;100147.44;7395081;19;20035;-66
2023/12/01 09:32:44;;;;;;;17.13;10.52;;;;;;;-2.36;100.00;100148.44;7396907;19;20011;-66
2023/12/01 09:35:15;;;;;;;18.52;12.07;;;;;;;-2.32;100.00;100145.09;7394436;19;20023;-68
2023/12/01 09:37:44;;;;;;;18.80;11.68;;;;;;;-2.25;100.00;100143.50;7395374;19;20011;-68
2023/12/01 09:40:13;;;;;;;17.27;11.65;;;;;;;-2.21;100.00;100141.03;7396107;19;20128;-66
2023/12/01 09:42:44;;;;;;;17.55;11.90;;;;;;;-2.18;100.00;100135.94;7394289;19;20015;-65
2023/12/01 09:45:20;;;;;;;17.85;11.23;;;;;;;-2.15;100.00;100132.56;7396228;19;20006;-67
2023/12/01 09:47:54;;;;;;;20.52;11.55;;;;;;;-2.13;100.00;100144.59;7395432;19;20022;-66
2023/12/01 09:50:25;;;;;;;16.90;10.10;;;;;;;-2.10;100.00;100140.38;7396633;19;20485;-66
2023/12/01 09:52:54;;;;;;;16.63;10.77;;;;;;;-2.08;100.00;100136.16;7396138;19;20437;-66
2023/12/01 09:55:23;;;;;;;15.90;10.43;;;;;;;-2.03;100.00;100143.09;7396064;19;20006;-66
2023/12/01 09:57:53;;;;;;;18.50;11.57;;;;;;;-1.99;100.00;100141.47;7394849;19;20074;-66
2023/12/01 10:00:21;;;;;;;16.85;10.98;;;;;;;-1.94;100.00;100144.13;7395842;19;20100;-66
2023/12/01 10:02:50;;;;;;;15.13;10.23;;;;;;;-1.92;100.00;100135.59;7393818;19;20090;-66
2023/12/01 10:05:20;;;;;;;16.67;10.57;;;;;;;-1.92;100.00;100138.19;7396602;19;20003;-65
2023/12/01 10:07:53;;;;;;;16.90;11.35;;;;;;;-1.88;100.00;100139.97;7397610;19;20024;-67
2023/12/01 10:10:23;;;;;;;17.25;11.70;;;;;;;-1.89;100.00;100133.09;7396350;19;20086;-66
2023/12/01 10:12:57;;;;;;;17.05;11.48;;;;;;;-1.89;100.00;100139.94;7394921;19;20477;-66
2023/12/01 10:15:27;;;;;;;;;;;;;;;-1.88;100.00;100132.25;7396283;19;20010;-71
2023/12/01 10:17:55;;;;;;;17.10;10.73;;;;;;;-1.84;100.00;100133.19;7393361;19;20381;-67
2023/12/01 10:20:24;;;;;;;20.88;11.73;;;;;;;-1.83;100.00;100140.91;7394913;19;20066;-68
2023/12/01 10:22:56;;;;;;;20.63;12.98;;;;;;;-1.80;100.00;100138.38;7393771;19;20369;-68
2023/12/01 10:25:25;;;;;;;18.90;11.68;;;;;;;-1.79;100.00;100134.13;7395487;19;20011;-68
2023/12/01 10:27:58;;;;;;;17.60;11.65;;;;;;;-1.80;99.20;100137.53;7395222;19;20031;-68
2023/12/01 10:30:27;;;;;;;18.33;11.05;;;;;;;-1.84;100.00;100131.47;7395019;19;20017;-68
2023/12/01 10:32:55;;;;;;;16.10;11.60;;;;;;;-1.85;97.88;100140.00;7394434;19;20019;-67
2023/12/01 10:35:24;;;;;;;18.02;12.18;;;;;;;-1.88;99.56;100145.09;7394661;19;20505;-68
2023/12/01 10:37:55;;;;;;;19.55;11.45;;;;;;;-1.87;100.00;100140.81;7393897;19;20022;-68
2023/12/01 10:40:25;;;;;;;17.85;11.88;;;;;;;-1.85;100.00;100136.59;7394785;19;20032;-68
2023/12/01 10:42:55;;;;;;;18.83;11.50;;;;;;;-1.82;98.83;100149.47;7395070;19;20019;-67
2023/12/01 10:45:23;;;;;;;19.17;12.00;;;;;;;-1.81;100.00;100135.78;7392741;19;20010;-68
2023/12/01 10:47:53;;;;;;;18.63;10.48;;;;;;;-1.79;100.00;100134.13;7392625;19;20481;-67
2023/12/01 10:50:22;;;;;;;16.67;12.02;;;;;;;-1.74;100.00;100131.66;7392360;19;20007;-67
2023/12/01 10:52:53;;;;;;;16.48;11.40;;;;;;;-1.69;100.00;100135.19;7394345;19;20059;-67
2023/12/01 10:55:24;;;;;;;19.55;13.15;;;;;;;-1.67;100.00;100136.06;7394828;19;20027;-69
2023/12/01 10:57:54;;;;;;;18.02;11.77;;;;;;;-1.65;100.00;100131.81;7392320;19;20146;-68
2023/12/01 11:00:32;;;;;;;22.13;12.75;;;;;;;-1.64;99.75;100136.13;7394797;19;20032;-68
2023/12/01 11:03:03;;;;;;;15.60;11.90;;;;;;;-1.66;94.87;100130.06;7393003;19;20504;-66
2023/12/01 11:05:33;;;;;;;18.08;13.02;;;;;;;-1.71;97.42;100124.84;7394395;19;20006;-66
2023/12/01 11:08:17;;;;;;;16.65;11.77;;;;;;;-1.73;97.07;100123.06;7401618;19;20418;-67
2023/12/01 11:10:58;;;;;;;18.20;12.48;;;;;;;-1.73;99.98;100121.38;7402586;19;20043;-67
2023/12/01 11:13:38;;;;;;;18.75;12.95;;;;;;;-1.68;98.36;100121.44;7400518;19;20021;-66
2023/12/01 11:16:09;;;;;;;18.73;12.15;;;;;;;-1.66;98.77;100124.94;7401062;19;20369;-66
2023/12/01 11:18:38;;;;;;;20.90;12.55;;;;;;;-1.64;96.41;100125.84;7398589;19;20017;-66